createdAt,value
2023-02-17T00:00:55.271Z,10.58
2023-02-17T00:03:23.722Z,10.58
2023-02-17T00:05:52.929Z,10.59
2023-02-17T00:08:20.774Z,10.56
2023-02-17T00:10:59.324Z,10.57
2023-02-17T00:13:27.760Z,10.59
2023-02-17T00:15:55.814Z,10.59
2023-02-17T00:18:23.651Z,10.58
2023-02-17T00:20:53.095Z,10.58
2023-02-17T00:23:20.859Z,10.58
2023-02-17T00:25:48.568Z,10.59
2023-02-17T00:28:16.294Z,10.58
2023-02-17T00:30:44.059Z,10.60
2023-02-17T00:33:11.743Z,10.61
2023-02-17T00:35:41.658Z,10.58
2023-02-17T00:38:10.787Z,10.60
2023-02-17T00:40:38.958Z,10.60
2023-02-17T00:43:07.156Z,10.58
2023-02-17T00:45:35.125Z,10.54
2023-02-17T00:48:02.866Z,10.58
2023-02-17T00:50:30.672Z,10.58
2023-02-17T00:52:58.428Z,10.58
2023-02-17T00:55:27.694Z,10.59
2023-02-17T00:57:55.423Z,10.58
2023-02-17T01:00:23.673Z,10.57
2023-02-17T01:02:51.428Z,10.58
2023-02-17T01:05:19.271Z,10.57
2023-02-17T01:07:47.025Z,10.57
2023-02-17T01:10:15.160Z,10.59
2023-02-17T01:12:44.248Z,10.58
2023-02-17T01:15:12.170Z,10.56
2023-02-17T01:17:39.967Z,10.57
2023-02-17T01:20:09.024Z,10.57
2023-02-17T01:22:36.936Z,10.58
2023-02-17T01:25:04.886Z,10.59
2023-02-17T01:27:32.692Z,10.59
2023-02-17T01:30:01.862Z,10.61
2023-02-17T01:32:29.590Z,10.59
2023-02-17T01:34:57.285Z,10.60
2023-02-17T01:37:25.031Z,10.58
2023-02-17T01:39:52.724Z,10.59
2023-02-17T01:42:21.638Z,10.60
2023-02-17T01:45:29.138Z,10.60
2023-02-17T01:48:00.871Z,10.60
2023-02-17T01:50:32.789Z,10.59
2023-02-17T01:53:02.712Z,10.59
2023-02-17T01:55:31.396Z,10.59
2023-02-17T01:58:02.234Z,10.60
2023-02-17T02:00:33.682Z,10.59
2023-02-17T02:03:03.030Z,10.59
2023-02-17T02:05:31.617Z,10.59
2023-02-17T02:07:59.436Z,10.61
2023-02-17T02:10:27.220Z,10.60
2023-02-17T02:12:54.948Z,10.59
2023-02-17T02:15:26.037Z,10.58
2023-02-17T02:18:09.761Z,10.58
2023-02-17T02:21:04.635Z,10.59
2023-02-17T02:23:53.931Z,10.58
2023-02-17T02:26:50.961Z,10.58
2023-02-17T02:29:46.790Z,10.57
2023-02-17T02:32:49.689Z,10.57
2023-02-17T02:35:22.011Z,10.57
2023-02-17T02:37:54.468Z,10.56
2023-02-17T02:40:27.360Z,10.57
2023-02-17T02:42:57.157Z,10.55
2023-02-17T02:45:24.934Z,10.56
2023-02-17T02:47:55.856Z,10.55
2023-02-17T02:50:37.221Z,10.54
2023-02-17T02:53:25.913Z,10.55
2023-02-17T02:55:58.819Z,10.55
2023-02-17T02:58:36.982Z,10.55
2023-02-17T03:01:14.278Z,10.46
2023-02-17T03:03:49.863Z,10.54
2023-02-17T03:06:26.357Z,10.55
2023-02-17T03:08:58.801Z,10.54
2023-02-17T03:11:33.234Z,10.53
2023-02-17T03:14:02.605Z,10.52
2023-02-17T03:16:30.608Z,10.52
2023-02-17T03:18:59.684Z,10.52
2023-02-17T03:21:34.579Z,10.54
2023-02-17T03:24:02.292Z,10.55
2023-02-17T03:26:29.976Z,10.54
2023-02-17T03:28:57.657Z,10.53
2023-02-17T03:31:25.475Z,10.54
2023-02-17T03:33:53.268Z,10.52
2023-02-17T03:36:22.375Z,10.53
2023-02-17T03:38:50.198Z,10.53
2023-02-17T03:41:17.954Z,10.52
2023-02-17T03:43:45.664Z,10.53
2023-02-17T03:46:14.398Z,10.53
2023-02-17T03:48:42.368Z,10.52
2023-02-17T03:51:14.865Z,10.52
2023-02-17T03:53:44.714Z,10.53
2023-02-17T03:56:13.307Z,10.52
2023-02-17T03:58:41.752Z,10.53
2023-02-17T04:01:12.281Z,10.53
2023-02-17T04:03:40.953Z,10.53
2023-02-17T04:06:09.655Z,10.53
2023-02-17T04:08:37.696Z,10.52
2023-02-17T04:11:09.732Z,10.50
2023-02-17T04:13:37.808Z,10.52
2023-02-17T04:16:06.986Z,10.51
2023-02-17T04:18:35.201Z,10.51
2023-02-17T04:21:03.351Z,10.51
2023-02-17T04:23:31.056Z,10.50
2023-02-17T04:25:58.795Z,10.51
2023-02-17T04:28:28.077Z,10.50
2023-02-17T04:30:55.849Z,10.51
2023-02-17T04:33:23.592Z,10.52
2023-02-17T04:35:51.337Z,10.50
2023-02-17T04:38:19.102Z,10.51
2023-02-17T04:40:46.819Z,10.50
2023-02-17T04:43:14.468Z,10.49
2023-02-17T04:45:43.589Z,10.49
2023-02-17T04:48:11.395Z,10.50
2023-02-17T04:50:39.176Z,10.50
2023-02-17T04:53:06.931Z,10.50
2023-02-17T04:55:34.748Z,10.49
2023-02-17T04:58:02.551Z,10.50
2023-02-17T05:00:30.577Z,10.50
2023-02-17T05:02:59.660Z,10.55
2023-02-17T05:05:27.370Z,10.52
2023-02-17T05:07:55.116Z,10.51
2023-02-17T05:10:24.125Z,10.52
2023-02-17T05:12:52.324Z,10.52
2023-02-17T05:15:20.290Z,10.51
2023-02-17T05:17:47.952Z,10.51
2023-02-17T05:20:17.075Z,10.53
2023-02-17T05:22:44.798Z,10.52
2023-02-17T05:25:12.507Z,10.51
2023-02-17T05:27:40.248Z,10.52
2023-02-17T05:30:08.890Z,10.52
2023-02-17T05:32:36.596Z,10.52
2023-02-17T05:35:04.435Z,10.52
2023-02-17T05:37:33.443Z,10.54
2023-02-17T05:40:01.151Z,10.53
2023-02-17T05:42:29.041Z,10.52
2023-02-17T05:44:57.035Z,10.49
2023-02-17T05:47:27.290Z,10.51
2023-02-17T05:49:55.287Z,10.52
2023-02-17T05:52:23.067Z,10.51
2023-02-17T05:54:52.142Z,10.51
2023-02-17T05:57:20.041Z,10.50
2023-02-17T05:59:47.793Z,10.50
2023-02-17T06:02:15.480Z,10.50
2023-02-17T06:04:43.227Z,10.50
2023-02-17T06:07:11.102Z,10.49
2023-02-17T06:09:38.878Z,10.49
2023-02-17T06:12:08.185Z,10.50
2023-02-17T06:14:35.952Z,10.50
2023-02-17T06:17:04.384Z,10.50
2023-02-17T06:19:32.093Z,10.50
2023-02-17T06:21:59.826Z,10.50
2023-02-17T06:24:27.601Z,10.52
2023-02-17T06:26:55.324Z,10.52
2023-02-17T06:29:24.477Z,10.53
2023-02-17T06:31:52.269Z,10.55
2023-02-17T06:34:20.044Z,10.55
2023-02-17T06:36:47.839Z,10.55
2023-02-17T06:39:15.587Z,10.60
2023-02-17T06:41:43.408Z,10.58
2023-02-17T06:44:11.142Z,10.56
2023-02-17T06:46:40.361Z,10.58
2023-02-17T06:49:08.092Z,10.60
2023-02-17T06:51:35.883Z,10.56
2023-02-17T06:54:03.668Z,10.66
2023-02-17T06:56:31.542Z,10.58
2023-02-17T06:58:59.279Z,10.57
2023-02-17T07:01:27.902Z,10.55
2023-02-17T07:03:57.476Z,10.55
2023-02-17T07:06:26.416Z,10.55
2023-02-17T07:08:54.778Z,10.54
2023-02-17T07:11:22.661Z,10.58
2023-02-17T07:13:50.429Z,10.57
2023-02-17T07:16:18.271Z,10.59
2023-02-17T07:18:46.143Z,10.68
2023-02-17T07:21:15.252Z,10.60
2023-02-17T07:23:43.002Z,10.57
2023-02-17T07:26:12.427Z,10.57
2023-02-17T07:28:41.660Z,10.56
2023-02-17T07:31:11.077Z,10.59
2023-02-17T07:33:40.308Z,10.59
2023-02-17T07:36:08.930Z,10.59
2023-02-17T07:38:38.985Z,10.62
2023-02-17T07:41:07.855Z,10.57
2023-02-17T07:43:35.987Z,10.67
2023-02-17T07:46:03.973Z,10.63
2023-02-17T07:48:32.147Z,10.58
2023-02-17T07:51:05.795Z,10.56
2023-02-17T07:53:33.977Z,10.53
2023-02-17T07:56:05.682Z,10.53
2023-02-17T07:58:34.152Z,10.56
2023-02-17T08:01:06.828Z,10.59
2023-02-17T08:03:34.895Z,10.68
2023-02-17T08:06:02.617Z,10.69
2023-02-17T08:08:50.275Z,10.66
2023-02-17T08:11:33.263Z,10.70
2023-02-17T08:14:01.308Z,10.67
2023-02-17T08:16:29.368Z,10.64
2023-02-17T08:18:57.756Z,10.64
2023-02-17T08:21:27.334Z,10.62
2023-02-17T08:23:55.230Z,10.70
2023-02-17T08:26:24.567Z,10.65
2023-02-17T08:28:52.373Z,10.64
2023-02-17T08:31:23.488Z,10.60
2023-02-17T08:33:52.100Z,10.60
2023-02-17T08:36:23.148Z,10.61
2023-02-17T08:38:51.390Z,10.61
2023-02-17T08:41:22.269Z,10.62
2023-02-17T08:43:51.966Z,10.64
2023-02-17T08:46:20.659Z,10.64
2023-02-17T08:48:48.454Z,10.64
2023-02-17T08:51:18.678Z,10.65
2023-02-17T08:53:46.936Z,10.64
2023-02-17T08:56:14.688Z,10.67
2023-02-17T08:58:42.393Z,10.70
2023-02-17T09:01:12.255Z,10.74
2023-02-17T09:03:41.698Z,10.75
2023-02-17T09:06:09.892Z,10.76
2023-02-17T09:08:39.306Z,10.76
2023-02-17T09:11:09.417Z,10.76
2023-02-17T09:13:38.082Z,10.76
2023-02-17T09:16:06.907Z,10.78
2023-02-17T09:18:36.291Z,10.79
2023-02-17T09:21:07.518Z,10.80
2023-02-17T09:23:35.426Z,10.79
2023-02-17T09:26:05.909Z,10.80
2023-02-17T09:28:35.061Z,10.80
2023-02-17T09:31:10.240Z,10.81
2023-02-17T09:33:40.037Z,10.81
2023-02-17T09:36:09.604Z,10.82
2023-02-17T09:38:39.871Z,10.85
2023-02-17T09:41:17.063Z,10.86
2023-02-17T09:43:45.204Z,10.84
2023-02-17T09:46:18.044Z,10.95
2023-02-17T09:48:49.175Z,10.97
2023-02-17T09:51:24.348Z,11.07
2023-02-17T09:54:01.593Z,11.24
2023-02-17T09:56:35.190Z,11.44
2023-02-17T09:59:07.759Z,11.61
2023-02-17T10:01:36.737Z,11.77
2023-02-17T10:04:11.514Z,11.92
2023-02-17T10:06:42.310Z,12.05
2023-02-17T10:09:16.557Z,12.17
2023-02-17T10:11:51.769Z,12.30
2023-02-17T10:14:25.824Z,12.44
2023-02-17T10:16:58.438Z,12.55
2023-02-17T10:19:31.632Z,12.65
2023-02-17T10:22:06.787Z,12.70
2023-02-17T10:24:34.519Z,12.74
2023-02-17T10:27:17.033Z,12.71
2023-02-17T10:29:56.966Z,12.58
2023-02-17T10:32:26.732Z,12.41
2023-02-17T10:35:13.050Z,12.24
2023-02-17T10:37:47.333Z,12.11
2023-02-17T10:40:20.479Z,12.01
2023-02-17T10:42:50.506Z,11.93
2023-02-17T10:45:27.399Z,11.85
2023-02-17T10:47:59.142Z,11.81
2023-02-17T10:50:28.274Z,11.76
2023-02-17T10:52:57.348Z,11.70
2023-02-17T10:55:34.836Z,11.66
2023-02-17T10:58:07.921Z,11.62
2023-02-17T11:00:35.707Z,11.59
2023-02-17T11:03:03.465Z,11.57
2023-02-17T11:05:34.684Z,11.61
2023-02-17T11:08:06.864Z,11.60
2023-02-17T11:10:37.314Z,11.58
2023-02-17T11:13:20.151Z,11.54
2023-02-17T11:15:48.748Z,11.53
2023-02-17T11:18:22.716Z,11.52
2023-02-17T11:21:01.321Z,11.49
2023-02-17T11:23:29.405Z,11.47
2023-02-17T11:26:11.498Z,11.49
2023-02-17T11:28:39.193Z,11.47
2023-02-17T11:31:07.471Z,11.46
2023-02-17T11:33:37.769Z,11.47
2023-02-17T11:36:10.601Z,11.46
2023-02-17T11:38:45.244Z,11.48
2023-02-17T11:41:13.123Z,11.46
2023-02-17T11:43:51.670Z,11.44
2023-02-17T11:46:28.590Z,11.45
2023-02-17T11:49:31.734Z,11.45
2023-02-17T11:52:13.026Z,11.44
2023-02-17T11:54:54.924Z,11.45
2023-02-17T11:57:37.975Z,11.48
2023-02-17T12:00:16.957Z,11.49
2023-02-17T12:03:14.120Z,11.54
2023-02-17T12:05:57.249Z,11.53
2023-02-17T12:08:39.349Z,11.58
2023-02-17T12:11:16.924Z,11.82
2023-02-17T12:14:09.326Z,11.80
2023-02-17T12:16:49.334Z,12.11
2023-02-17T12:19:46.733Z,12.19
2023-02-17T12:22:19.737Z,12.19
2023-02-17T12:25:15.962Z,12.24
2023-02-17T12:27:55.091Z,12.41
2023-02-17T12:30:32.957Z,12.58
2023-02-17T12:33:25.777Z,12.74
2023-02-17T12:35:56.171Z,12.84
2023-02-17T12:38:30.622Z,12.80
2023-02-17T12:41:07.874Z,12.71
2023-02-17T12:43:42.142Z,12.53
2023-02-17T12:46:13.639Z,12.48
2023-02-17T12:48:46.897Z,12.38
2023-02-17T12:51:22.095Z,12.30
2023-02-17T12:53:54.776Z,12.22
2023-02-17T12:56:40.979Z,12.19
2023-02-17T12:59:15.174Z,12.15
2023-02-17T13:01:54.078Z,12.12
2023-02-17T13:04:26.236Z,12.08
2023-02-17T13:07:02.481Z,12.08
2023-02-17T13:09:35.938Z,12.07
2023-02-17T13:12:27.538Z,12.03
2023-02-17T13:14:56.674Z,12.01
2023-02-17T13:17:27.312Z,12.03
2023-02-17T13:20:05.862Z,12.00
2023-02-17T13:22:33.618Z,12.00
2023-02-17T13:25:01.336Z,11.98
2023-02-17T13:27:36.424Z,11.96
2023-02-17T13:30:09.468Z,11.94
2023-02-17T13:32:39.096Z,11.92
2023-02-17T13:35:08.816Z,11.92
2023-02-17T13:37:43.103Z,11.90
2023-02-17T13:40:43.641Z,11.92
2023-02-17T13:43:17.037Z,11.89
2023-02-17T13:45:48.239Z,11.89
2023-02-17T13:48:25.100Z,11.90
2023-02-17T13:50:53.715Z,11.88
2023-02-17T13:53:25.661Z,11.90
2023-02-17T13:55:53.959Z,11.88
2023-02-17T13:58:30.874Z,11.88
2023-02-17T14:01:00.265Z,11.97
2023-02-17T14:03:30.615Z,12.11
2023-02-17T14:06:00.291Z,12.31
2023-02-17T14:08:35.105Z,12.49
2023-02-17T14:11:10.231Z,12.66
2023-02-17T14:13:41.467Z,12.88
2023-02-17T14:16:26.860Z,13.06
2023-02-17T14:19:05.029Z,13.22
2023-02-17T14:21:33.270Z,13.27
2023-02-17T14:24:02.387Z,13.21
2023-02-17T14:26:33.401Z,13.10
2023-02-17T14:29:05.054Z,12.96
2023-02-17T14:31:38.974Z,12.83
2023-02-17T14:34:07.489Z,12.69
2023-02-17T14:36:37.573Z,12.61
2023-02-17T14:39:08.441Z,12.57
2023-02-17T14:41:36.294Z,12.53
2023-02-17T14:44:06.076Z,12.45
2023-02-17T14:46:34.414Z,12.39
2023-02-17T14:49:02.870Z,12.38
2023-02-17T14:51:35.025Z,12.34
2023-02-17T14:54:03.414Z,12.32
2023-02-17T14:56:34.985Z,12.30
2023-02-17T14:59:02.805Z,12.24
2023-02-17T15:01:32.093Z,12.24
2023-02-17T15:04:00.058Z,12.20
2023-02-17T15:06:32.628Z,12.18
2023-02-17T15:09:02.283Z,12.16
2023-02-17T15:11:34.466Z,12.17
2023-02-17T15:14:03.616Z,12.12
2023-02-17T15:16:32.952Z,12.14
2023-02-17T15:19:00.714Z,12.13
2023-02-17T15:21:30.229Z,12.12
2023-02-17T15:24:00.215Z,12.10
2023-02-17T15:26:28.701Z,12.09
2023-02-17T15:28:57.098Z,12.08
2023-02-17T15:31:25.656Z,12.07
2023-02-17T15:33:57.756Z,12.10
2023-02-17T15:36:26.412Z,12.08
2023-02-17T15:38:54.567Z,12.10
2023-02-17T15:41:25.457Z,12.19
2023-02-17T15:43:54.582Z,12.00
2023-02-17T15:46:27.289Z,12.05
2023-02-17T15:48:56.393Z,12.07
2023-02-17T15:51:24.820Z,12.07
2023-02-17T15:53:52.803Z,12.05
2023-02-17T15:56:23.241Z,12.05
2023-02-17T15:58:51.967Z,12.08
2023-02-17T16:01:28.032Z,12.05
2023-02-17T16:03:57.702Z,12.03
2023-02-17T16:06:25.790Z,12.00
2023-02-17T16:08:53.683Z,12.00
2023-02-17T16:11:22.539Z,12.00
2023-02-17T16:13:50.977Z,11.98
2023-02-17T16:16:20.696Z,11.98
2023-02-17T16:18:49.334Z,11.99
2023-02-17T16:21:19.327Z,11.98
2023-02-17T16:23:47.287Z,11.99
2023-02-17T16:26:23.206Z,11.99
2023-02-17T16:28:50.929Z,12.00
2023-02-17T16:31:18.849Z,12.00
2023-02-17T16:33:46.658Z,12.00
2023-02-17T16:36:16.645Z,12.00
2023-02-17T16:38:46.970Z,11.99
2023-02-17T16:41:15.608Z,12.00
2023-02-17T16:43:43.791Z,11.99
2023-02-17T16:46:20.951Z,12.00
2023-02-17T16:48:48.692Z,12.01
2023-02-17T16:51:16.471Z,11.99
2023-02-17T16:53:45.551Z,12.00
2023-02-17T16:56:19.515Z,12.00
2023-02-17T16:58:47.254Z,12.01
2023-02-17T17:01:15.059Z,12.00
2023-02-17T17:03:43.852Z,12.00
2023-02-17T17:06:20.511Z,12.00
2023-02-17T17:08:50.049Z,11.99
2023-02-17T17:11:23.092Z,11.92
2023-02-17T17:13:51.324Z,11.98
2023-02-17T17:16:22.560Z,11.98
2023-02-17T17:18:50.449Z,11.97
2023-02-17T17:21:19.667Z,11.96
2023-02-17T17:23:50.659Z,11.96
2023-02-17T17:26:25.618Z,11.95
2023-02-17T17:28:53.676Z,11.94
2023-02-17T17:31:22.943Z,11.94
2023-02-17T17:33:51.618Z,11.95
2023-02-17T17:36:24.652Z,11.95
2023-02-17T17:38:55.225Z,11.96
2023-02-17T17:41:24.392Z,11.95
2023-02-17T17:43:52.411Z,11.96
2023-02-17T17:46:22.531Z,11.95
2023-02-17T17:48:50.425Z,11.90
2023-02-17T17:51:20.603Z,11.95
2023-02-17T17:53:48.606Z,11.96
2023-02-17T17:56:20.876Z,11.96
2023-02-17T17:58:48.883Z,11.96
2023-02-17T18:01:17.360Z,11.96
2023-02-17T18:03:45.113Z,11.96
2023-02-17T18:06:17.338Z,11.94
2023-02-17T18:08:46.253Z,11.93
2023-02-17T18:11:15.152Z,11.94
2023-02-17T18:13:45.871Z,11.94
2023-02-17T18:16:13.956Z,11.94
2023-02-17T18:18:42.085Z,11.94
2023-02-17T18:21:09.939Z,11.95
2023-02-17T18:23:37.660Z,11.94
2023-02-17T18:26:06.007Z,11.94
2023-02-17T18:28:34.622Z,11.93
2023-02-17T18:31:08.915Z,11.93
2023-02-17T18:33:36.775Z,11.92
2023-02-17T18:36:08.543Z,11.93
2023-02-17T18:38:36.872Z,11.93
2023-02-17T18:41:04.890Z,11.98
2023-02-17T18:43:32.800Z,12.10
2023-02-17T18:46:01.138Z,12.22
2023-02-17T18:48:30.275Z,12.39
2023-02-17T18:50:58.026Z,12.55
2023-02-17T18:53:25.979Z,12.71
2023-02-17T18:55:53.684Z,12.85
2023-02-17T18:58:21.388Z,12.99
2023-02-17T19:00:49.118Z,13.09
2023-02-17T19:03:16.839Z,13.08
2023-02-17T19:05:45.963Z,12.99
2023-02-17T19:08:14.181Z,12.87
2023-02-17T19:10:41.999Z,12.74
2023-02-17T19:13:09.729Z,12.64
2023-02-17T19:15:38.039Z,12.56
2023-02-17T19:18:06.254Z,12.50
2023-02-17T19:20:34.469Z,12.37
2023-02-17T19:23:04.022Z,12.38
2023-02-17T19:25:31.762Z,12.37
2023-02-17T19:27:59.618Z,12.32
2023-02-17T19:30:27.340Z,12.28
2023-02-17T19:32:55.231Z,12.25
2023-02-17T19:35:23.001Z,12.20
2023-02-17T19:37:50.663Z,12.20
2023-02-17T19:40:20.272Z,12.18
2023-02-17T19:42:48.021Z,12.17
2023-02-17T19:45:15.915Z,12.15
2023-02-17T19:47:43.615Z,12.12
2023-02-17T19:50:11.522Z,12.12
2023-02-17T19:52:39.483Z,12.10
2023-02-17T19:55:09.719Z,12.10
2023-02-17T19:57:38.881Z,12.10
2023-02-17T20:00:09.923Z,12.10
2023-02-17T20:02:38.233Z,12.08
2023-02-17T20:05:06.332Z,12.06
2023-02-17T20:07:34.102Z,12.05
2023-02-17T20:10:01.806Z,12.04
2023-02-17T20:12:29.556Z,12.04
2023-02-17T20:14:58.919Z,12.03
2023-02-17T20:17:26.638Z,12.01
2023-02-17T20:19:54.444Z,12.00
2023-02-17T20:22:22.235Z,11.96
2023-02-17T20:24:50.022Z,11.99
2023-02-17T20:27:17.784Z,11.99
2023-02-17T20:29:45.542Z,11.97
2023-02-17T20:32:14.798Z,11.97
2023-02-17T20:34:42.825Z,11.96
2023-02-17T20:37:11.212Z,11.94
2023-02-17T20:39:40.170Z,11.90
2023-02-17T20:42:07.928Z,11.94
2023-02-17T20:44:36.236Z,11.91
2023-02-17T20:47:04.477Z,11.91
2023-02-17T20:49:33.619Z,11.92
2023-02-17T20:52:01.299Z,11.93
2023-02-17T20:54:29.050Z,11.91
2023-02-17T20:56:59.209Z,11.90
2023-02-17T20:59:27.156Z,11.90
2023-02-17T21:01:55.053Z,11.89
2023-02-17T21:04:22.805Z,11.88
2023-02-17T21:06:51.920Z,11.88
2023-02-17T21:09:20.223Z,11.87
2023-02-17T21:11:48.863Z,11.86
2023-02-17T21:14:16.658Z,11.87
2023-02-17T21:16:44.974Z,11.85
2023-02-17T21:19:12.966Z,11.85
2023-02-17T21:21:40.959Z,11.86
2023-02-17T21:24:10.203Z,11.86
2023-02-17T21:26:38.028Z,11.86
2023-02-17T21:29:05.949Z,11.85
2023-02-17T21:31:34.114Z,11.84
2023-02-17T21:34:01.944Z,11.84
2023-02-17T21:36:29.773Z,11.84
2023-02-17T21:38:57.948Z,11.84
2023-02-17T21:41:30.257Z,11.84
2023-02-17T21:44:15.927Z,11.85
2023-02-17T21:46:44.283Z,11.84
2023-02-17T21:49:12.690Z,11.82
2023-02-17T21:51:41.112Z,11.85
2023-02-17T21:54:09.513Z,11.85
2023-02-17T21:56:39.314Z,11.85
2023-02-17T21:59:07.182Z,11.84
2023-02-17T22:01:35.299Z,11.85
2023-02-17T22:04:03.548Z,11.83
2023-02-17T22:06:33.120Z,11.83
2023-02-17T22:09:01.218Z,11.83
2023-02-17T22:11:33.055Z,11.82
2023-02-17T22:14:03.750Z,11.81
2023-02-17T22:16:32.816Z,11.81
2023-02-17T22:19:01.196Z,11.82
2023-02-17T22:21:29.309Z,11.81
2023-02-17T22:23:58.574Z,11.80
2023-02-17T22:26:27.113Z,11.81
2023-02-17T22:28:55.181Z,11.80
2023-02-17T22:31:25.960Z,11.80
2023-02-17T22:33:53.768Z,11.79
2023-02-17T22:36:24.383Z,11.80
2023-02-17T22:38:52.515Z,11.79
2023-02-17T22:41:23.064Z,11.79
2023-02-17T22:43:51.980Z,11.79
2023-02-17T22:46:21.764Z,11.81
2023-02-17T22:48:52.537Z,11.76
2023-02-17T22:51:23.029Z,11.83
2023-02-17T22:53:50.899Z,11.83
2023-02-17T22:56:18.908Z,11.85
2023-02-17T22:58:46.668Z,11.84
2023-02-17T23:01:18.031Z,11.85
2023-02-17T23:03:47.363Z,11.85
2023-02-17T23:06:18.884Z,11.85
2023-02-17T23:08:47.651Z,11.85
2023-02-17T23:11:17.910Z,11.84
2023-02-17T23:13:45.959Z,11.85
2023-02-17T23:16:21.418Z,11.88
2023-02-17T23:18:49.262Z,11.89
2023-02-17T23:21:18.435Z,11.91
2023-02-17T23:23:46.128Z,11.92
2023-02-17T23:26:15.212Z,11.92
2023-02-17T23:28:42.935Z,11.92
2023-02-17T23:31:11.064Z,11.93
2023-02-17T23:33:39.274Z,11.92
2023-02-17T23:36:08.739Z,11.89
2023-02-17T23:38:38.121Z,11.89
2023-02-17T23:41:06.002Z,11.89
2023-02-17T23:43:33.768Z,11.88
2023-02-17T23:46:02.001Z,11.88
2023-02-17T23:48:29.774Z,11.86
2023-02-17T23:50:58.370Z,11.87
2023-02-17T23:53:26.459Z,11.86
2023-02-17T23:56:03.831Z,11.86
2023-02-17T23:58:31.980Z,11.85
